Pride of Baltimore II — WUW2120 — position and weather

sailwx.info

Track history (hours):
 
Tides and Currents Weather Stations Pressure Air Temp Water Temp Dewpoint Dewpoint Depression Visibility Wind Speed Wind Dir Waves Ship Positions

Pride of Baltimore II (United States)

Reproduction of an 1812-era Baltimore Clipper privateer.

Ship's website: http://www.marylandspride.org/

More information available from US FCC via Universal Licensing System and Coast Guard Vessel Documentation Center.

Last reported at 2014-Sep-01 17:34 UTC. Time now 2014-Sep-01 18:31 UTC.
Position N 39°11' W 076°26'.

Type: Sailing vessel. MMSI: 303302000.

Date/timePositionNaut miles runAvg speedWind from/ knotsBaromVisibWave heightAir tempDewpointWater temp
2014-Sep-01 17:34N 39°11' W 076°26'9 7.5
2014-Sep-01 16:22N 39°05' W 076°17'  
2014-Aug-28 21:33N 39°02' W 076°16'5 5.4
2014-Aug-28 20:32N 39°04' W 076°23'6 5.7
2014-Aug-28 19:32N 39°05' W 076°16'6 5.7
2014-Aug-28 18:33N 39°03' W 076°23'4 3.7
2014-Aug-28 17:33N 39°04' W 076°18'9 4.7
2014-Aug-28 15:33N 39°11' W 076°27'5 4.7
2014-Aug-28 14:33N 39°13' W 076°32'3 3.4
2014-Aug-28 13:33N 39°16' W 076°35'2 1.8
2014-Aug-28 12:33N 39°17' W 076°37'0 0.0
2014-Aug-28 11:33N 39°17' W 076°37'0 0.0
2014-Aug-28 10:33N 39°17' W 076°37'0 0.0
2014-Aug-28 09:30N 39°17' W 076°37'0 0.0
2014-Aug-28 08:33N 39°17' W 076°37'0 0.0
2014-Aug-28 07:33N 39°17' W 076°37'0 0.0
2014-Aug-28 06:33N 39°17' W 076°37'0 0.0
2014-Aug-28 05:33N 39°17' W 076°37'0 0.0
2014-Aug-28 04:33N 39°17' W 076°37'0 0.0
2014-Aug-28 03:33N 39°17' W 076°37'0 0.0
2014-Aug-28 02:33N 39°17' W 076°37'0 0.0
2014-Aug-28 01:33N 39°17' W 076°37'0 0.0
2014-Aug-28 00:27N 39°17' W 076°37'0 0.0
2014-Aug-27 23:33N 39°17' W 076°37'0 0.0
2014-Aug-27 22:33N 39°17' W 076°37'0 0.0
2014-Aug-27 21:33N 39°17' W 076°37'0 0.0
2014-Aug-27 20:33N 39°17' W 076°37'1 0.8
2014-Aug-27 19:33N 39°17' W 076°36'1 0.9
2014-Aug-27 18:33N 39°17' W 076°35'0 0.0
2014-Aug-27 17:33N 39°17' W 076°35'0 0.0
2014-Aug-27 16:33N 39°17' W 076°35'0 0.0
2014-Aug-27 15:33N 39°17' W 076°35'3 3.0
2014-Aug-27 14:33N 39°14' W 076°33'6 6.1
2014-Aug-27 13:33N 39°11' W 076°26'7 6.8
2014-Aug-27 12:33N 39°04' W 076°23'7 7.2
2014-Aug-27 11:33N 38°57' W 076°24'7 7.3
2014-Aug-27 10:33N 38°50' W 076°27'7 6.9
2014-Aug-27 09:33N 38°43' W 076°28'7 7.1
2014-Aug-27 08:31N 38°36' W 076°28'7 7.6
2014-Aug-27 07:33N 38°29' W 076°26'7 7.5
2014-Aug-27 06:33N 38°22' W 076°21'7 6.7
2014-Aug-27 05:33N 38°16' W 076°19'5 4.7
2014-Aug-27 04:33N 38°11' W 076°17'1 1.2
2014-Aug-27 03:33N 38°10' W 076°17'3 2.6
2014-Aug-27 02:33N 38°07' W 076°17'5 5.2
2014-Aug-27 01:34N 38°02' W 076°18'6 6.3
2014-Aug-27 00:34N 38°00' W 076°26'51 3.1
2014-Aug-26 08:16N 38°37' W 077°10'4 5.1
2014-Aug-26 07:31N 38°40' W 077°08'7 6.4
2014-Aug-26 06:25N 38°45' W 077°02'3 3.7
2014-Aug-26 05:33N 38°48' W 077°02'3 2.6
2014-Aug-26 04:33N 38°51' W 077°01'2 1.7
2014-Aug-26 03:30N 38°52' W 076°60'0 0.0
2014-Aug-26 02:33N 38°52' W 076°60'0 0.0
2014-Aug-26 01:30N 38°52' W 076°60'0 0.0
2014-Aug-26 00:30N 38°52' W 076°60'0 0.0
2014-Aug-25 23:30N 38°52' W 076°60'0 0.0
2014-Aug-25 22:30N 38°52' W 076°60'0 0.0
2014-Aug-25 21:24N 38°52' W 076°60'0 0.0
2014-Aug-25 20:30N 38°52' W 076°60'0 0.0
2014-Aug-25 19:30N 38°52' W 076°60'0 0.0
2014-Aug-25 18:30N 38°52' W 076°60'0 0.0
2014-Aug-25 17:26N 38°52' W 076°60'0 0.0
2014-Aug-25 16:30N 38°52' W 076°60'0 0.0
2014-Aug-25 15:32N 38°52' W 076°60'0 0.0
2014-Aug-25 14:32N 38°52' W 076°60'0 0.0
2014-Aug-25 13:32N 38°52' W 076°60'0 0.0
2014-Aug-25 12:32N 38°52' W 076°60'0 0.0
2014-Aug-25 11:33N 38°52' W 076°60'0 0.0
2014-Aug-25 10:32N 38°52' W 076°60'0 0.0
2014-Aug-25 09:29N 38°52' W 076°60'0 0.0
2014-Aug-25 08:32N 38°52' W 076°60'0 0.0
2014-Aug-25 07:32N 38°52' W 076°60'0 0.0
2014-Aug-25 06:29N 38°52' W 076°60'0 0.0
2014-Aug-25 05:32N 38°52' W 076°60'0 0.0
2014-Aug-25 04:29N 38°52' W 076°60'0 0.0
2014-Aug-25 03:29N 38°52' W 076°60'0 0.0
2014-Aug-25 02:29N 38°52' W 076°60'0 0.0
2014-Aug-25 01:29N 38°52' W 076°60'0 0.0
2014-Aug-25 00:29N 38°52' W 076°60'0 0.0
2014-Aug-24 23:29N 38°52' W 076°60'0 0.0
2014-Aug-24 22:29N 38°52' W 076°60'0 0.0
2014-Aug-24 21:32N 38°52' W 076°60'0 0.0
2014-Aug-24 20:32N 38°52' W 076°60'0 0.0
2014-Aug-24 19:32N 38°52' W 076°60'0 0.0
2014-Aug-24 18:29N 38°52' W 076°60'0 0.0
2014-Aug-24 17:32N 38°52' W 076°60'0 0.0
2014-Aug-24 16:26N 38°52' W 076°60'0 0.0
2014-Aug-24 15:32N 38°52' W 076°60'0 0.0
2014-Aug-24 14:32N 38°52' W 076°60'0 0.0
2014-Aug-24 13:32N 38°52' W 076°60'0 0.0
2014-Aug-24 12:29N 38°52' W 076°60'0 0.0
2014-Aug-24 11:32N 38°52' W 076°60'0 0.0
2014-Aug-24 10:29N 38°52' W 076°60'0 0.0
2014-Aug-24 09:33N 38°52' W 076°60'0 0.0
2014-Aug-24 08:29N 38°52' W 076°60'0 0.0
2014-Aug-24 07:32N 38°52' W 076°60'0 0.0
2014-Aug-24 06:32N 38°52' W 076°60'0 0.0
2014-Aug-24 05:29N 38°52' W 076°60'0 0.0
2014-Aug-24 04:32N 38°52' W 076°60'0 0.0
2014-Aug-24 03:28N 38°52' W 076°60'0 0.0
2014-Aug-24 02:28N 38°52' W 076°60'0 0.0
2014-Aug-24 01:28N 38°52' W 076°60'0 0.0
2014-Aug-24 00:28N 38°52' W 076°60'0 0.0
2014-Aug-23 23:28N 38°52' W 076°60'0 0.0
2014-Aug-23 22:28N 38°52' W 076°60'0 0.0
2014-Aug-23 21:28N 38°52' W 076°60'0 0.0
2014-Aug-23 20:28N 38°52' W 076°60'0 0.0
2014-Aug-23 19:28N 38°52' W 076°60'0 0.0
2014-Aug-23 03:28N 38°52' W 076°60'0 0.0
2014-Aug-23 02:31N 38°52' W 076°60'0 0.0
2014-Aug-23 01:31N 38°52' W 076°60'0 0.0
2014-Aug-23 00:31N 38°52' W 076°60'0 0.0
2014-Aug-22 23:28N 38°52' W 076°60'0 0.0
2014-Aug-22 22:28N 38°52' W 076°60'0 0.0
2014-Aug-22 21:25N 38°52' W 076°60'0 0.0
2014-Aug-22 20:31N 38°52' W 076°60'0 0.0
2014-Aug-22 19:28N 38°52' W 076°60'0 0.0
2014-Aug-22 18:31N 38°52' W 076°60'0 0.0
2014-Aug-22 17:34N 38°52' W 076°60'  
Track history (hours):
 
Tides and Currents Weather Stations Pressure Air Temp Water Temp Dewpoint Dewpoint Depression Visibility Wind Speed Wind Dir Waves Ship Positions

Pride of Baltimore II (United States)

Reproduction of an 1812-era Baltimore Clipper privateer.

Ship's website: http://www.marylandspride.org/

More information available from US FCC via Universal Licensing System and Coast Guard Vessel Documentation Center.

Last reported at 2014-Sep-01 17:34 UTC. Time now 2014-Sep-01 18:31 UTC.
Position N 39°11' W 076°26'.

Type: Sailing vessel. MMSI: 303302000.

Date/timePositionNaut miles runAvg speedWind from/ knotsBaromVisibWave heightAir tempDewpointWater temp
2014-Sep-01 17:34N 39°11' W 076°26'9 7.5
2014-Sep-01 16:22N 39°05' W 076°17'  
2014-Aug-28 21:33N 39°02' W 076°16'5 5.4
2014-Aug-28 20:32N 39°04' W 076°23'6 5.7
2014-Aug-28 19:32N 39°05' W 076°16'6 5.7
2014-Aug-28 18:33N 39°03' W 076°23'4 3.7
2014-Aug-28 17:33N 39°04' W 076°18'9 4.7
2014-Aug-28 15:33N 39°11' W 076°27'5 4.7
2014-Aug-28 14:33N 39°13' W 076°32'3 3.4
2014-Aug-28 13:33N 39°16' W 076°35'2 1.8
2014-Aug-28 12:33N 39°17' W 076°37'0 0.0
2014-Aug-28 11:33N 39°17' W 076°37'0 0.0
2014-Aug-28 10:33N 39°17' W 076°37'0 0.0
2014-Aug-28 09:30N 39°17' W 076°37'0 0.0
2014-Aug-28 08:33N 39°17' W 076°37'0 0.0
2014-Aug-28 07:33N 39°17' W 076°37'0 0.0
2014-Aug-28 06:33N 39°17' W 076°37'0 0.0
2014-Aug-28 05:33N 39°17' W 076°37'0 0.0
2014-Aug-28 04:33N 39°17' W 076°37'0 0.0
2014-Aug-28 03:33N 39°17' W 076°37'0 0.0
2014-Aug-28 02:33N 39°17' W 076°37'0 0.0
2014-Aug-28 01:33N 39°17' W 076°37'0 0.0
2014-Aug-28 00:27N 39°17' W 076°37'0 0.0
2014-Aug-27 23:33N 39°17' W 076°37'0 0.0
2014-Aug-27 22:33N 39°17' W 076°37'0 0.0
2014-Aug-27 21:33N 39°17' W 076°37'0 0.0
2014-Aug-27 20:33N 39°17' W 076°37'1 0.8
2014-Aug-27 19:33N 39°17' W 076°36'1 0.9
2014-Aug-27 18:33N 39°17' W 076°35'0 0.0
2014-Aug-27 17:33N 39°17' W 076°35'0 0.0
2014-Aug-27 16:33N 39°17' W 076°35'0 0.0
2014-Aug-27 15:33N 39°17' W 076°35'3 3.0
2014-Aug-27 14:33N 39°14' W 076°33'6 6.1
2014-Aug-27 13:33N 39°11' W 076°26'7 6.8
2014-Aug-27 12:33N 39°04' W 076°23'7 7.2
2014-Aug-27 11:33N 38°57' W 076°24'7 7.3
2014-Aug-27 10:33N 38°50' W 076°27'7 6.9
2014-Aug-27 09:33N 38°43' W 076°28'7 7.1
2014-Aug-27 08:31N 38°36' W 076°28'7 7.6
2014-Aug-27 07:33N 38°29' W 076°26'7 7.5
2014-Aug-27 06:33N 38°22' W 076°21'7 6.7
2014-Aug-27 05:33N 38°16' W 076°19'5 4.7
2014-Aug-27 04:33N 38°11' W 076°17'1 1.2
2014-Aug-27 03:33N 38°10' W 076°17'3 2.6
2014-Aug-27 02:33N 38°07' W 076°17'5 5.2
2014-Aug-27 01:34N 38°02' W 076°18'6 6.3
2014-Aug-27 00:34N 38°00' W 076°26'51 3.1
2014-Aug-26 08:16N 38°37' W 077°10'4 5.1
2014-Aug-26 07:31N 38°40' W 077°08'7 6.4
2014-Aug-26 06:25N 38°45' W 077°02'3 3.7
2014-Aug-26 05:33N 38°48' W 077°02'3 2.6
2014-Aug-26 04:33N 38°51' W 077°01'2 1.7
2014-Aug-26 03:30N 38°52' W 076°60'0 0.0
2014-Aug-26 02:33N 38°52' W 076°60'0 0.0
2014-Aug-26 01:30N 38°52' W 076°60'0 0.0
2014-Aug-26 00:30N 38°52' W 076°60'0 0.0
2014-Aug-25 23:30N 38°52' W 076°60'0 0.0
2014-Aug-25 22:30N 38°52' W 076°60'0 0.0
2014-Aug-25 21:24N 38°52' W 076°60'0 0.0
2014-Aug-25 20:30N 38°52' W 076°60'0 0.0
2014-Aug-25 19:30N 38°52' W 076°60'0 0.0
2014-Aug-25 18:30N 38°52' W 076°60'0 0.0
2014-Aug-25 17:26N 38°52' W 076°60'0 0.0
2014-Aug-25 16:30N 38°52' W 076°60'0 0.0
2014-Aug-25 15:32N 38°52' W 076°60'0 0.0
2014-Aug-25 14:32N 38°52' W 076°60'0 0.0
2014-Aug-25 13:32N 38°52' W 076°60'0 0.0
2014-Aug-25 12:32N 38°52' W 076°60'0 0.0
2014-Aug-25 11:33N 38°52' W 076°60'0 0.0
2014-Aug-25 10:32N 38°52' W 076°60'0 0.0
2014-Aug-25 09:29N 38°52' W 076°60'0 0.0
2014-Aug-25 08:32N 38°52' W 076°60'0 0.0
2014-Aug-25 07:32N 38°52' W 076°60'0 0.0
2014-Aug-25 06:29N 38°52' W 076°60'0 0.0
2014-Aug-25 05:32N 38°52' W 076°60'0 0.0
2014-Aug-25 04:29N 38°52' W 076°60'0 0.0
2014-Aug-25 03:29N 38°52' W 076°60'0 0.0
2014-Aug-25 02:29N 38°52' W 076°60'0 0.0
2014-Aug-25 01:29N 38°52' W 076°60'0 0.0
2014-Aug-25 00:29N 38°52' W 076°60'0 0.0
2014-Aug-24 23:29N 38°52' W 076°60'0 0.0
2014-Aug-24 22:29N 38°52' W 076°60'0 0.0
2014-Aug-24 21:32N 38°52' W 076°60'0 0.0
2014-Aug-24 20:32N 38°52' W 076°60'0 0.0
2014-Aug-24 19:32N 38°52' W 076°60'0 0.0
2014-Aug-24 18:29N 38°52' W 076°60'0 0.0
2014-Aug-24 17:32N 38°52' W 076°60'0 0.0
2014-Aug-24 16:26N 38°52' W 076°60'0 0.0
2014-Aug-24 15:32N 38°52' W 076°60'0 0.0
2014-Aug-24 14:32N 38°52' W 076°60'0 0.0
2014-Aug-24 13:32N 38°52' W 076°60'0 0.0
2014-Aug-24 12:29N 38°52' W 076°60'0 0.0
2014-Aug-24 11:32N 38°52' W 076°60'0 0.0
2014-Aug-24 10:29N 38°52' W 076°60'0 0.0
2014-Aug-24 09:33N 38°52' W 076°60'0 0.0
2014-Aug-24 08:29N 38°52' W 076°60'0 0.0
2014-Aug-24 07:32N 38°52' W 076°60'0 0.0
2014-Aug-24 06:32N 38°52' W 076°60'0 0.0
2014-Aug-24 05:29N 38°52' W 076°60'0 0.0
2014-Aug-24 04:32N 38°52' W 076°60'0 0.0
2014-Aug-24 03:28N 38°52' W 076°60'0 0.0
2014-Aug-24 02:28N 38°52' W 076°60'0 0.0
2014-Aug-24 01:28N 38°52' W 076°60'0 0.0
2014-Aug-24 00:28N 38°52' W 076°60'0 0.0
2014-Aug-23 23:28N 38°52' W 076°60'0 0.0
2014-Aug-23 22:28N 38°52' W 076°60'0 0.0
2014-Aug-23 21:28N 38°52' W 076°60'0 0.0
2014-Aug-23 20:28N 38°52' W 076°60'0 0.0
2014-Aug-23 19:28N 38°52' W 076°60'0 0.0
2014-Aug-23 03:28N 38°52' W 076°60'0 0.0
2014-Aug-23 02:31N 38°52' W 076°60'0 0.0
2014-Aug-23 01:31N 38°52' W 076°60'0 0.0
2014-Aug-23 00:31N 38°52' W 076°60'0 0.0
2014-Aug-22 23:28N 38°52' W 076°60'0 0.0
2014-Aug-22 22:28N 38°52' W 076°60'0 0.0
2014-Aug-22 21:25N 38°52' W 076°60'0 0.0
2014-Aug-22 20:31N 38°52' W 076°60'0 0.0
2014-Aug-22 19:28N 38°52' W 076°60'0 0.0
2014-Aug-22 18:31N 38°52' W 076°60'0 0.0
2014-Aug-22 17:34N 38°52' W 076°60'  

Dump ship's entire track history